Latest Weather Observations for Mortlake

IDV60801

Issued at 1:05 pm EST Tuesday 16 September 2014 (issued every 30 minutes, with the page automatically refreshed every 10 minutes)

About weather observations | Map of weather stations | Latest weather observations for VIC | Other Formats
Station Details ID: 090176 Name: MORTLAKE RACECOURSE Lat: -38.07 Lon: 142.77 Height: 130.0 m
Data from the previous 72 hours. | See also: Recent months at Mortlake
Date/Time
EST
Temp
°C
App
Temp
°C
Dew
Point
Rel
Hum
%
Delta-T
°C
Wind Press
QNH
hPa
Press
MSL
hPa
Rain
since 9 am
mm
Dir
 
Spd
km/h
Gust
km/h
Spd
kts
Gust
kts
16/01:00pm 12.8 7.9 8.3 74 2.2 SW 24 33 13 18 1012.4 1012.5 0.0
16/12:30pm 12.5 8.4 10.2 86 1.2 SW 22 32 12 17 1012.6 1012.7 0.0
16/12:00pm 11.4 7.0 10.3 93 0.6 SW 24 33 13 18 1013.0 1013.1 0.0
16/11:30am 12.5 8.4 10.2 86 1.2 SW 22 32 12 17 1013.0 1013.1 0.0
16/11:00am 12.2 7.6 9.6 84 1.3 SW 24 35 13 19 1013.0 1013.1 0.0
16/10:30am 12.4 7.7 10.6 89 0.9 SW 26 37 14 20 1013.1 1013.2 0.0
16/10:00am 12.1 7.0 10.7 91 0.7 SW 28 37 15 20 1013.0 1013.1 0.0
16/09:30am 12.1 7.3 11.5 96 0.3 SW 28 37 15 20 1012.8 1012.9 0.0
16/09:00am 11.2 7.4 11.0 99 0.1 SW 22 33 12 18 1012.8 1012.9 0.0
16/08:30am 11.2 7.4 11.0 99 0.1 SW 22 30 12 16 1012.6 1012.7 0.0
16/08:00am 11.1 7.6 10.9 99 0.1 SW 20 28 11 15 1012.4 1012.5 0.0
16/07:30am 11.3 7.9 11.1 99 0.1 SW 20 33 11 18 1012.0 1012.1 0.0
16/07:00am 11.4 8.0 11.2 99 0.1 SSW 20 32 11 17 1011.6 1011.7 0.0
16/06:30am 11.4 8.9 11.2 99 0.1 SSW 15 19 8 10 1011.3 1011.4 0.0
16/06:00am 11.5 8.3 11.3 99 0.1 SSW 19 26 10 14 1010.8 1010.9 0.0
16/05:30am 11.5 8.7 11.3 99 0.1 SSW 17 20 9 11 1010.6 1010.7 0.0
16/05:00am 11.6 8.8 11.4 99 0.1 SSW 17 22 9 12 1010.3 1010.4 0.0
16/04:30am 11.5 8.7 11.3 99 0.1 SSW 17 22 9 12 1010.1 1010.2 0.0
16/04:00am 11.4 8.6 11.2 99 0.1 SSW 17 20 9 11 1009.8 1009.9 0.0
16/03:30am 11.2 8.4 11.2 100 0.0 SW 17 22 9 12 1009.6 1009.7 0.0
16/03:00am 10.8 8.2 10.8 100 0.0 SW 15 19 8 10 1009.6 1009.7 0.0
16/02:30am 10.9 8.4 10.9 100 0.0 SSW 15 20 8 11 1009.7 1009.8 0.0
16/02:00am 10.7 8.5 10.7 100 0.0 SW 13 17 7 9 1010.1 1010.2 0.0
16/01:30am 10.0 8.0 10.0 100 0.0 SW 11 17 6 9 1010.2 1010.3 0.0
16/01:00am 10.0 7.6 10.0 100 0.0 SW 13 15 7 8 1010.1 1010.2 0.0
16/12:30am 8.6 7.1 8.5 99 0.0 SSW 6 7 3 4 1010.1 1010.2 0.0
16/12:00am 8.0 6.2 7.9 99 0.0 SSW 7 9 4 5 1010.2 1010.3 0.0
 
Date/Time
EST
Temp
°C
App
Temp
°C
Dew
Point
Rel
Hum
%
Delta-T
°C
Wind Press
QNH
hPa
Press
MSL
hPa
Rain
since 9 am
mm
Dir
 
Spd
km/h
Gust
km/h
Spd
kts
Gust
kts
15/11:30pm 8.0 5.4 7.9 99 0.0 SW 11 15 6 8 1010.3 1010.4 0.0
15/11:00pm 8.3 6.6 8.2 99 0.0 SSW 7 9 4 5 1010.5 1010.6 0.0
15/10:30pm 7.8 5.6 7.7 99 0.0 SSW 9 11 5 6 1010.6 1010.7 0.0
15/10:00pm 8.4 6.7 8.3 99 0.0 S 7 9 4 5 1010.4 1010.5 0.0
15/09:30pm 8.6 5.8 8.5 99 0.0 SSW 13 17 7 9 1010.5 1010.6 0.0
15/09:00pm 8.6 6.9 8.5 99 0.0 S 7 9 4 5 1010.4 1010.5 0.0
15/08:30pm 9.5 7.3 9.4 99 0.0 SSE 11 15 6 8 1010.5 1010.6 0.0
15/08:00pm 9.6 7.7 9.1 97 0.2 SSE 9 11 5 6 1010.6 1010.7 0.0
15/07:30pm 10.6 7.8 10.0 96 0.3 SE 15 20 8 11 1010.3 1010.4 0.0
15/07:00pm 11.1 7.6 10.3 95 0.4 SE 19 26 10 14 1010.0 1010.1 0.0
15/06:30pm 11.8 8.2 10.5 92 0.7 ESE 20 28 11 15 1009.6 1009.7 0.0
15/06:00pm 12.6 9.4 11.2 91 0.7 E 19 32 10 17 1009.2 1009.3 0.0
15/05:30pm 13.0 9.6 11.4 90 0.9 E 20 32 11 17 1009.1 1009.2 0.0
15/05:00pm 13.1 9.0 11.3 89 1.0 E 24 39 13 21 1009.0 1009.1 0.0
15/04:30pm 13.4 10.7 11.6 89 1.0 E 17 28 9 15 1009.0 1009.1 0.0
15/04:00pm 13.6 10.0 11.7 88 1.0 E 22 35 12 19 1009.0 1009.1 0.0
15/03:30pm 14.0 10.8 12.0 88 1.1 E 20 32 11 17 1008.8 1008.9 0.0
15/03:00pm 14.9 10.8 12.6 86 1.3 E 26 39 14 21 1008.8 1008.9 0.0
15/02:30pm 14.3 9.9 11.8 85 1.4 E 26 44 14 24 1008.7 1008.8 0.0
15/02:00pm 14.2 10.3 12.1 87 1.1 E 24 37 13 20 1009.2 1009.3 0.0
15/01:30pm 14.1 10.2 12.1 88 1.1 E 24 35 13 19 1009.7 1009.8 0.0
15/01:00pm 14.0 10.0 11.9 87 1.1 E 24 35 13 19 1010.1 1010.2 0.0
15/12:30pm 14.0 10.0 11.7 86 1.2 E 24 37 13 20 1010.6 1010.7 0.0
15/12:00pm 13.8 10.4 12.4 91 0.8 E 22 35 12 19 1011.1 1011.2 0.0
15/11:30am 13.6 10.1 12.2 91 0.8 E 22 33 12 18 1011.6 1011.7 0.0
15/11:00am 13.2 9.3 12.1 93 0.6 E 24 35 13 19 1012.2 1012.3 0.0
15/10:30am 12.6 9.3 11.5 93 0.6 E 20 33 11 18 1012.7 1012.8 0.0
15/10:00am 12.1 7.9 11.2 94 0.5 E 24 41 13 22 1013.2 1013.4 0.0
15/09:30am 11.5 6.9 11.0 97 0.3 E 26 44 14 24 1013.6 1013.8 0.0
15/09:00am 11.7 7.9 11.2 97 0.3 E 22 35 12 19 1014.0 1014.1 1.8
15/08:30am 11.2 6.9 10.9 98 0.2 E 24 33 13 18 1014.5 1014.6 1.8
15/08:00am 10.8 7.4 10.6 99 0.1 E 19 30 10 16 1014.6 1014.7 1.8
15/07:30am 10.3 7.1 10.1 99 0.1 E 17 28 9 15 1014.7 1014.8 1.8
15/07:00am 10.2 7.0 10.1 99 0.1 E 17 30 9 16 1014.7 1014.8 1.8
15/06:30am 10.2 7.0 10.1 99 0.1 E 17 24 9 13 1014.6 1014.7 1.8
15/06:00am 10.2 6.7 10.1 99 0.1 E 19 30 10 16 1014.6 1014.7 1.8
15/05:30am 10.2 7.0 9.9 98 0.2 E 17 26 9 14 1014.7 1014.8 1.8
15/05:00am 10.2 7.4 10.1 99 0.1 E 15 28 8 15 1014.8 1014.9 1.8
15/04:30am 10.2 6.7 10.1 99 0.1 ENE 19 28 10 15 1014.9 1015.0 1.8
15/04:00am 10.3 6.8 10.1 99 0.1 E 19 26 10 14 1015.6 1015.7 1.8
15/03:30am 10.4 8.0 10.2 99 0.1 E 13 19 7 10 1016.1 1016.2 1.2
15/03:00am 10.4 6.9 10.2 99 0.1 ESE 19 24 10 13 1015.7 1015.8 1.0
15/02:30am 10.5 8.9 10.3 99 0.1 NE 9 20 5 11 1016.8 1016.9 0.0
15/02:00am 10.4 7.3 10.2 99 0.1 ENE 17 28 9 15 1015.7 1015.8 0.0
15/01:30am 10.3 6.8 10.1 99 0.1 ESE 19 22 10 12 1016.6 1016.7 0.0
15/01:00am 10.3 7.9 10.1 99 0.1 E 13 22 7 12 1017.0 1017.1 0.0
15/12:30am 10.3 7.5 10.1 99 0.1 ENE 15 22 8 12 1017.0 1017.1 0.0
15/12:00am 10.2 8.2 10.1 99 0.1 ENE 11 19 6 10 1017.7 1017.8 0.0
 
Date/Time
EST
Temp
°C
App
Temp
°C
Dew
Point
Rel
Hum
%
Delta-T
°C
Wind Press
QNH
hPa
Press
MSL
hPa
Rain
since 9 am
mm
Dir
 
Spd
km/h
Gust
km/h
Spd
kts
Gust
kts
14/11:30pm 10.0 9.3 9.9 99 0.1 ESE 4 9 2 5 1018.6 1018.7 0.0
14/11:00pm 10.0 8.9 9.9 99 0.1 ESE 6 7 3 4 1019.2 1019.3 0.0
14/10:30pm 9.8 9.0 9.7 99 0.1 ESE 4 7 2 4 1019.2 1019.3 0.0
14/10:00pm 9.5 9.4 9.4 99 0.0 CALM 0 4 0 2 1019.8 1020.0 0.0
14/09:30pm 9.7 8.9 9.6 99 0.1 ESE 4 6 2 3 1019.7 1019.9 0.0
14/09:00pm 9.6 8.4 9.5 99 0.0 ESE 6 7 3 4 1019.5 1019.6 0.0
14/08:30pm 9.8 8.4 9.7 99 0.1 SE 7 11 4 6 1019.2 1019.3 0.0
14/08:00pm 10.4 8.8 10.2 99 0.1 SE 9 13 5 7 1019.1 1019.2 0.0
14/07:30pm 10.2 8.6 10.1 99 0.1 SSE 9 15 5 8 1018.8 1018.9 0.0
14/07:00pm 10.3 8.2 9.8 97 0.3 SSE 11 13 6 7 1018.6 1018.7 0.0
14/06:30pm 11.3 8.6 10.4 94 0.5 SSE 15 17 8 9 1018.4 1018.5 0.0
14/06:00pm 12.0 9.0 10.6 91 0.7 SSE 17 20 9 11 1018.3 1018.4 0.0
14/05:30pm 13.1 9.8 10.8 86 1.2 SSE 19 24 10 13 1018.1 1018.2 0.0
14/05:00pm 14.4 11.2 11.2 81 1.7 SSE 19 24 10 13 1018.1 1018.2 0.0
14/04:30pm 15.6 12.9 11.6 77 2.2 S 17 24 9 13 1018.1 1018.2 0.0
14/04:00pm 15.9 14.0 10.4 70 2.9 SSE 11 15 6 8 1018.0 1018.1 0.0
14/03:30pm 15.5 13.8 11.1 75 2.4 SSE 11 19 6 10 1018.3 1018.4 0.0
14/03:00pm 17.1 15.9 11.6 70 3.0 SSE 9 13 5 7 1018.4 1018.5 0.0
14/02:30pm 16.6 15.6 10.9 69 3.1 SE 7 11 4 6 1018.6 1018.7 0.0
14/02:00pm 15.7 13.7 10.2 70 2.9 SE 11 20 6 11 1018.6 1018.7 0.0
14/01:30pm 16.5 15.1 10.8 69 3.1 SE 9 13 5 7 1019.0 1019.1 0.0
14/01:00pm 16.1 14.6 10.4 69 3.0 ESE 9 17 5 9 1019.1 1019.2 0.0
14/12:30pm 15.6 13.9 9.7 68 3.1 SE 9 15 5 8 1019.6 1019.7 0.0
14/12:00pm 15.7 14.0 10.0 69 3.0 ESE 9 19 5 10 1020.2 1020.4 0.0
14/11:30am 15.4 13.8 10.2 71 2.7 ESE 9 17 5 9 1020.6 1020.8 0.0
14/11:00am 14.7 12.7 10.1 74 2.4 ESE 11 17 6 9 1020.9 1021.1 0.0
14/10:30am 14.2 12.7 9.2 72 2.6 E 7 11 4 6 1021.1 1021.3 0.0
14/10:00am 13.3 11.9 9.5 78 1.9 ENE 7 11 4 6 1021.2 1021.4 0.0
14/09:30am 12.0 10.7 9.2 83 1.4 S 6 7 3 4 1021.5 1021.7 0.0
14/09:00am 11.1 10.4 9.9 92 0.6 W 4 7 2 4 1021.3 1021.5 0.0
14/08:30am 7.4 6.8 7.3 99 0.0 CALM 0 0 0 0 1021.5 1021.7 0.0
14/08:00am 6.3 4.3 6.2 99 0.0 W 6 7 3 4 1021.6 1021.8 0.0
14/07:30am 2.9 1.4 2.8 99 0.0 CALM 0 0 0 0 1021.4 1021.6 0.0
14/07:00am 2.8 1.2 2.7 99 0.0 CALM 0 0 0 0 1021.2 1021.4 0.0
14/06:30am 1.8 0.1 1.7 99 0.0 CALM 0 0 0 0 1021.0 1021.2 0.0
14/06:00am 1.9 -0.6 1.8 99 0.0 SSW 4 6 2 3 1020.7 1020.9 0.0
14/05:30am 2.1 0.0 2.0 99 0.0 W 2 4 1 2 1020.6 1020.8 0.0
14/05:00am 1.6 -0.2 1.5 99 0.0 CALM 0 4 0 2 1020.4 1020.6 0.0
14/04:30am 2.2 0.5 2.1 99 0.0 CALM 0 0 0 0 1020.5 1020.7 0.0
14/04:00am 2.6 -0.1 2.5 99 0.0 W 6 7 3 4 1020.6 1020.8 0.0
14/03:30am 2.4 -0.6 2.3 99 0.0 W 7 7 4 4 1020.7 1020.9 0.0
14/03:00am 3.2 0.6 3.1 99 0.0 W 6 7 3 4 1021.0 1021.2 0.0
14/02:30am 4.1 1.6 4.0 99 0.0 W 6 7 3 4 1021.3 1021.5 0.0
14/02:00am 3.4 0.8 3.3 99 0.0 W 6 7 3 4 1021.7 1021.9 0.0
14/01:30am 3.4 0.8 3.3 99 0.0 W 6 7 3 4 1022.1 1022.2 0.0
14/01:00am 3.7 1.9 3.6 99 0.0 SSW 2 4 1 2 1022.4 1022.5 0.0
14/12:30am 4.2 2.9 4.1 99 0.0 CALM 0 0 0 0 1022.7 1022.8 0.0
14/12:00am 4.8 3.6 4.7 99 0.0 CALM 0 0 0 0 1022.8 1022.9 0.0
 
Date/Time
EST
Temp
°C
App
Temp
°C
Dew
Point
Rel
Hum
%
Delta-T
°C
Wind Press
QNH
hPa
Press
MSL
hPa
Rain
since 9 am
mm
Dir
 
Spd
km/h
Gust
km/h
Spd
kts
Gust
kts
13/11:30pm 5.0 3.1 4.9 99 0.0 SSW 4 4 2 2 1022.7 1022.8 0.0
13/11:00pm 4.9 3.0 4.8 99 0.0 SSW 4 6 2 3 1023.0 1023.1 0.0
13/10:30pm 5.9 4.5 5.3 96 0.3 SSW 2 4 1 2 1023.1 1023.2 0.0
13/10:00pm 8.2 6.9 7.8 97 0.2 SSW 4 4 2 2 1023.3 1023.4 0.0
13/09:30pm 7.8 6.1 7.7 99 0.0 SSW 6 7 3 4 1023.1 1023.2 0.0
13/09:00pm 7.5 5.6 6.9 96 0.3 SSW 6 6 3 3 1023.0 1023.1 0.0
13/08:30pm 7.1 5.5 6.4 95 0.3 SSW 4 4 2 2 1022.8 1022.9 0.0
13/08:00pm 7.6 6.1 6.7 94 0.4 SSW 4 6 2 3 1022.7 1022.8 0.0
13/07:30pm 8.0 6.4 6.5 90 0.7 SSW 4 7 2 4 1022.8 1022.9 0.0
13/07:00pm 9.1 7.4 7.4 89 0.8 SSW 6 7 3 4 1022.5 1022.6 0.0
13/06:30pm 10.4 9.6 8.3 87 1.0 SSW 2 4 1 2 1022.3 1022.4 0.0
13/06:00pm 11.7 10.2 9.1 84 1.3 SSW 7 9 4 5 1022.4 1022.5 0.0
13/05:30pm 11.7 10.3 9.4 86 1.2 SSW 7 9 4 5 1022.5 1022.6 0.0
13/05:00pm 13.1 11.4 8.2 72 2.4 SW 7 11 4 6 1022.4 1022.5 0.0
13/04:30pm 14.0 12.4 8.8 71 2.6 WSW 7 11 4 6 1022.5 1022.6 0.0
13/04:00pm 13.5 11.7 7.9 69 2.8 W 7 13 4 7 1022.6 1022.7 0.0
13/03:30pm 13.6 10.6 7.6 67 3.0 W 13 20 7 11 1022.8 1022.9 0.0
13/03:00pm 14.1 11.8 8.9 71 2.6 WNW 11 19 6 10 1023.0 1023.1 0.0
13/02:30pm 13.0 10.5 8.1 72 2.4 WNW 11 19 6 10 1023.2 1023.3 0.0
13/02:00pm 13.0 10.4 7.9 71 2.5 NW 11 17 6 9 1023.5 1023.6 0.0
13/01:30pm 12.9 9.1 7.6 70 2.6 WNW 17 20 9 11 1023.8 1023.9 0.0

Other Formats:

Comma delimited format used in spreadsheet applications
http://www.bom.gov.au/fwo/IDV60801/IDV60801.94840.axf

JavaScript Object Notation format (JSON) in row-major order
http://www.bom.gov.au/fwo/IDV60801/IDV60801.94840.json